Time;durP1;ratioP1;P1;durP2;ratioP2;P2;SDS_P1;SDS_P2;PMS_P1;PMS_P2;Temp;Humidity;BMP_temperature;BMP_pressure;BME280_temperature;BME280_humidity;BME280_pressure;Samples;Min_cycle;Max_cycle;Signal;HPM_P1;HPM_P2
2022/09/08 00:00:41;;;;;;;4.45;2.30;;;;;;;10.11;70.07;99691.94;4756775;30;20134;-81
2022/09/08 00:03:11;;;;;;;4.53;2.55;;;;;;;10.16;69.99;99699.69;4757172;30;20089;-81
2022/09/08 00:05:44;;;;;;;4.45;2.40;;;;;;;10.20;69.50;99711.78;4772988;30;20043;-80
2022/09/08 00:08:10;;;;;;;3.97;2.60;;;;;;;10.20;69.47;99710.06;4773628;30;20086;-80
2022/09/08 00:10:38;;;;;;;3.67;2.10;;;;;;;10.13;69.64;99697.97;4773682;30;20042;-80
2022/09/08 00:13:07;;;;;;;4.85;2.42;;;;;;;10.25;69.79;99720.41;4746861;30;20075;-81
2022/09/08 00:15:36;;;;;;;4.47;2.30;;;;;;;10.22;69.42;99710.03;4761963;30;20044;-84
2022/09/08 00:18:04;;;;;;;5.53;2.67;;;;;;;10.10;69.79;99691.06;4787841;29;20072;-84
2022/09/08 00:20:29;;;;;;;5.38;2.83;;;;;;;10.13;69.34;99697.97;4756882;30;20050;-79
2022/09/08 00:22:56;;;;;;;4.03;2.58;;;;;;;10.31;69.48;99725.56;4791309;29;20139;-81
2022/09/08 00:25:21;;;;;;;3.50;2.47;;;;;;;10.25;69.48;99713.50;4795693;29;20126;-80
2022/09/08 00:27:48;;;;;;;4.32;2.80;;;;;;;10.27;69.38;99717.78;4726365;30;20047;-81
2022/09/08 00:30:16;;;;;;;5.05;2.25;;;;;;;10.33;69.43;99726.41;4746926;30;20130;-82
2022/09/08 00:32:42;;;;;;;3.63;2.60;;;;;;;10.37;69.26;99724.63;4772231;29;20091;-79
2022/09/08 00:35:14;;;;;;;4.30;2.50;;;;;;;10.33;69.33;99725.53;4762202;30;20073;-80
2022/09/08 00:37:40;;;;;;;;;;;;;;;10.38;69.23;99731.56;4747175;30;20476;-79
2022/09/08 00:40:07;;;;;;;4.30;2.30;;;;;;;10.35;69.05;99722.06;4772318;29;19998;-81
2022/09/08 00:42:34;;;;;;;3.75;2.45;;;;;;;10.39;69.33;99713.38;4741420;30;20055;-80
2022/09/08 00:44:59;;;;;;;4.03;2.75;;;;;;;10.38;69.06;99715.97;4771820;29;20132;-80
2022/09/08 00:47:33;;;;;;;4.50;2.80;;;;;;;10.47;69.31;99731.53;4771892;29;20504;-81
2022/09/08 00:50:22;;;;;;;3.83;2.33;;;;;;;10.47;69.03;99722.84;4772892;29;20054;-81
2022/09/08 00:53:08;;;;;;;4.75;2.33;;;;;;;10.52;68.88;99729.72;4772241;29;20053;-80
2022/09/08 00:55:36;;;;;;;3.30;2.25;;;;;;;10.54;69.06;99730.56;4773299;30;20039;-80
2022/09/08 00:58:03;;;;;;;3.15;2.22;;;;;;;10.55;69.30;99727.09;4756429;30;20051;-80
2022/09/08 01:00:29;;;;;;;4.30;2.72;;;;;;;10.56;68.51;99727.97;4742961;30;20054;-79
2022/09/08 01:02:55;;;;;;;3.85;2.20;;;;;;;10.51;68.58;99727.16;4760972;29;20166;-80
2022/09/08 01:05:30;;;;;;;2.75;2.28;;;;;;;10.43;68.61;99718.53;4772246;29;20072;-79
2022/09/08 01:14:04;;;;;;;3.60;2.28;;;;;;;10.39;68.38;99722.94;4771921;30;20055;-82
2022/09/08 01:16:42;;;;;;;3.35;2.30;;;;;;;10.35;68.95;99711.66;4756357;30;20052;-81
2022/09/08 01:19:20;;;;;;;2.88;2.25;;;;;;;10.47;68.84;99736.72;4772279;29;20040;-81
2022/09/08 01:22:04;;;;;;;2.95;2.17;;;;;;;10.49;68.47;99734.09;4771406;29;20043;-83
2022/09/08 01:24:41;;;;;;;3.65;2.17;;;;;;;10.45;68.66;99735.88;4757773;30;20054;-80
2022/09/08 01:27:29;;;;;;;2.30;2.10;;;;;;;10.48;68.45;99740.19;4774978;30;20382;-80
2022/09/08 01:30:00;;;;;;;2.47;2.00;;;;;;;10.37;68.31;99717.69;4758487;30;20102;-82
2022/09/08 01:32:31;;;;;;;2.20;1.70;;;;;;;10.42;68.08;99735.91;4779611;29;20134;-82
2022/09/08 01:34:56;;;;;;;2.85;2.20;;;;;;;10.37;68.27;99738.50;4779764;30;20050;-79
2022/09/08 01:37:23;;;;;;;3.13;1.77;;;;;;;10.22;68.50;99710.03;4759731;30;20043;-81
2022/09/08 01:39:49;;;;;;;3.10;1.80;;;;;;;10.36;68.52;99734.19;4776861;30;20079;-81
2022/09/08 01:42:15;;;;;;;2.63;1.98;;;;;;;10.48;68.34;99742.78;4776414;30;20051;-82
2022/09/08 01:44:43;;;;;;;3.53;1.85;;;;;;;10.34;68.23;99715.13;4760906;30;20048;-81
2022/09/08 01:47:10;;;;;;;3.28;1.70;;;;;;;10.42;68.11;99728.09;4752086;30;20053;-81
2022/09/08 01:49:36;;;;;;;4.47;2.03;;;;;;;10.54;67.86;99747.94;4767079;30;20135;-80
2022/09/08 01:52:03;;;;;;;2.42;1.75;;;;;;;10.59;68.19;99747.88;4777431;29;20431;-81
2022/09/08 01:54:29;;;;;;;1.85;1.65;;;;;;;10.57;68.14;99742.72;4774299;29;20052;-80
2022/09/08 01:56:55;;;;;;;2.80;1.90;;;;;;;10.45;67.37;99722.88;4748975;30;20066;-81
2022/09/08 01:59:21;;;;;;;2.28;1.70;;;;;;;10.60;67.62;99747.00;4759545;30;20108;-80
2022/09/08 02:01:49;;;;;;;2.17;1.63;;;;;;;10.55;67.98;99739.25;4763381;30;20059;-80
2022/09/08 02:04:15;;;;;;;2.28;1.70;;;;;;;10.59;67.74;99750.50;4763344;30;20078;-81
2022/09/08 02:06:42;;;;;;;2.20;1.52;;;;;;;10.55;67.65;99740.09;4745935;29;20048;-82
2022/09/08 02:09:08;;;;;;;2.22;1.75;;;;;;;10.64;67.60;99741.75;4762274;30;20524;-81
2022/09/08 02:11:34;;;;;;;2.80;1.60;;;;;;;10.63;67.84;99746.97;4758368;30;20075;-82
2022/09/08 02:14:00;;;;;;;2.08;1.50;;;;;;;10.55;67.30;99740.09;4775009;29;20323;-81
2022/09/08 02:16:26;;;;;;;1.85;1.60;;;;;;;10.61;67.47;99738.31;4759055;30;20070;-81
2022/09/08 02:18:53;;;;;;;2.00;1.50;;;;;;;10.64;67.14;99748.72;4774256;29;20048;-81
2022/09/08 02:21:21;;;;;;;1.92;1.58;;;;;;;10.59;67.32;99753.09;4774879;29;20065;-80
2022/09/08 02:23:48;;;;;;;2.05;1.70;;;;;;;10.60;67.12;99752.22;4774778;30;20404;-81
2022/09/08 02:26:19;;;;;;;2.10;1.80;;;;;;;10.72;67.02;99761.63;4744087;29;20047;-81
2022/09/08 02:28:45;;;;;;;2.42;1.58;;;;;;;10.75;66.95;99764.22;4774181;30;20046;-80
2022/09/08 02:31:12;;;;;;;2.97;1.80;;;;;;;10.75;66.97;99769.41;4758368;30;20546;-81
2022/09/08 02:33:40;;;;;;;6.78;1.80;;;;;;;10.78;66.90;99766.78;4780872;29;20058;-80
2022/09/08 02:36:07;;;;;;;3.05;1.67;;;;;;;10.79;66.97;99766.75;4775453;29;20043;-81
2022/09/08 02:38:33;;;;;;;3.85;1.70;;;;;;;10.78;66.90;99767.63;4771901;29;20458;-80
2022/09/08 02:41:00;;;;;;;2.53;1.77;;;;;;;10.72;66.60;99769.44;4782370;29;20051;-80
2022/09/08 02:43:27;;;;;;;2.13;1.90;;;;;;;10.66;66.73;99762.56;4778904;29;20096;-79
2022/09/08 02:45:53;;;;;;;4.18;2.15;;;;;;;10.71;66.89;99768.56;4742033;30;20043;-80
2022/09/08 02:48:19;;;;;;;3.72;2.67;;;;;;;10.76;66.78;99776.34;4772959;29;20686;-79
2022/09/08 02:50:45;;;;;;;2.97;2.50;;;;;;;10.67;66.51;99765.16;4773818;29;20042;-80
2022/09/08 02:53:14;;;;;;;4.20;2.67;;;;;;;10.70;66.62;99777.28;4771636;29;20055;-79
2022/09/08 02:55:42;;;;;;;2.92;2.13;;;;;;;10.76;66.32;99782.41;4773831;29;20086;-82
2022/09/08 02:58:10;;;;;;;3.35;2.58;;;;;;;10.75;66.60;99775.47;4774176;29;20067;-80
2022/09/08 03:00:38;;;;;;;6.68;3.00;;;;;;;10.82;66.56;99786.69;4756308;30;20051;-80
2022/09/08 03:03:06;;;;;;;5.32;3.38;;;;;;;10.80;66.35;99788.47;4721173;30;20588;-80
2022/09/08 03:05:33;;;;;;;3.03;2.50;;;;;;;10.73;66.45;99779.81;4772983;29;20135;-82
2022/09/08 03:08:03;;;;;;;5.30;3.15;;;;;;;10.70;65.91;99779.88;4775305;29;20420;-80
2022/09/08 03:10:31;;;;;;;3.67;2.67;;;;;;;10.72;65.69;99791.13;4775364;29;20048;-81
2022/09/08 03:12:56;;;;;;;3.63;3.10;;;;;;;10.73;66.04;99797.19;4760120;30;20058;-81
2022/09/08 03:15:25;;;;;;;3.30;2.55;;;;;;;10.65;65.88;99786.88;4752578;30;20050;-79
2022/09/08 03:17:52;;;;;;;3.85;2.60;;;;;;;10.51;66.06;99769.63;4773793;30;20040;-81
2022/09/08 03:20:18;;;;;;;3.47;2.60;;;;;;;10.74;65.53;99809.34;4777870;29;20133;-81
2022/09/08 03:22:44;;;;;;;3.75;2.92;;;;;;;10.67;65.19;99801.56;4747542;30;20138;-80
2022/09/08 03:25:12;;;;;;;3.65;2.53;;;;;;;10.69;65.27;99809.38;4758370;30;20150;-81
2022/09/08 03:27:39;;;;;;;3.17;2.60;;;;;;;10.70;65.37;99805.91;4761596;29;20047;-79
2022/09/08 03:30:08;;;;;;;4.20;2.75;;;;;;;10.72;65.65;99819.75;4772616;29;20047;-81
2022/09/08 03:32:36;;;;;;;7.95;3.00;;;;;;;10.73;65.80;99813.66;4773351;29;20097;-81
2022/09/08 03:35:03;;;;;;;3.55;2.88;;;;;;;10.79;65.48;99824.03;4777653;29;20057;-81
2022/09/08 03:37:29;;;;;;;3.72;2.70;;;;;;;10.80;65.70;99811.88;4749317;30;20071;-81
2022/09/08 03:39:58;;;;;;;2.70;2.30;;;;;;;10.78;65.48;99803.22;4748294;30;20050;-81
2022/09/08 03:42:27;;;;;;;6.10;4.28;;;;;;;10.87;65.27;99812.69;4756266;30;20138;-81
2022/09/08 03:44:52;;;;;;;3.75;2.60;;;;;;;10.94;65.18;99832.56;4771462;30;20051;-80
2022/09/08 03:47:18;;;;;;;6.15;3.17;;;;;;;10.84;65.11;99823.97;4772259;29;20063;-81
2022/09/08 03:49:47;;;;;;;2.78;2.30;;;;;;;10.77;65.07;99815.38;4773601;29;20138;-82
2022/09/08 03:52:13;;;;;;;4.70;2.42;;;;;;;10.94;65.03;99838.63;4745598;30;20047;-82
2022/09/08 03:54:50;;;;;;;3.00;2.40;;;;;;;10.92;64.85;99837.78;4756988;29;20059;-80
2022/09/08 03:57:21;;;;;;;2.78;2.22;;;;;;;10.81;64.74;99824.88;4761898;30;20129;-80
2022/09/08 03:59:52;;;;;;;2.42;2.20;;;;;;;10.81;64.81;99824.03;4753067;30;20047;-81
2022/09/08 04:02:20;;;;;;;4.25;2.58;;;;;;;10.82;64.54;99826.59;4759582;30;21343;-81
2022/09/08 04:04:52;;;;;;;2.88;2.25;;;;;;;10.93;64.29;99847.31;4757100;29;20054;-81
2022/09/08 04:07:19;;;;;;;4.50;2.53;;;;;;;10.70;64.33;99809.34;4758961;30;20115;-80
2022/09/08 04:09:46;;;;;;;3.00;2.20;;;;;;;10.84;64.38;99831.78;4774764;30;20069;-80
2022/09/08 04:12:12;;;;;;;4.20;2.30;;;;;;;10.95;64.59;99844.69;4744797;30;20055;-83
2022/09/08 04:14:39;;;;;;;2.83;2.00;;;;;;;10.87;64.23;99829.16;4780498;29;20062;-84
2022/09/08 04:17:06;;;;;;;2.40;2.20;;;;;;;10.83;64.49;99814.44;4776604;30;20027;-84
2022/09/08 04:19:32;;;;;;;2.35;2.15;;;;;;;10.91;64.01;99817.84;4783770;29;20201;-80
2022/09/08 04:21:58;;;;;;;3.72;2.70;;;;;;;11.03;64.45;99842.88;4761086;29;20050;-80
2022/09/08 04:24:24;;;;;;;2.53;2.10;;;;;;;11.14;64.33;99854.03;4775955;29;20051;-81
2022/09/08 04:26:51;;;;;;;3.17;2.60;;;;;;;11.20;64.27;99850.53;4761725;30;20118;-80
2022/09/08 04:29:17;;;;;;;3.63;2.30;;;;;;;11.36;64.01;99855.56;4757804;30;20051;-79
2022/09/08 04:31:44;;;;;;;3.38;2.58;;;;;;;11.39;63.94;99853.78;4755842;30;20063;-78
2022/09/08 04:34:13;;;;;;;4.97;2.17;;;;;;;11.44;63.72;99844.19;4774410;30;20055;-78
2022/09/08 04:36:40;;;;;;;5.68;2.88;;;;;;;11.53;63.57;99847.56;4781231;29;20043;-78
2022/09/08 04:39:08;;;;;;;2.95;2.30;;;;;;;11.48;63.63;99847.59;4786693;29;20126;-79
2022/09/08 04:41:34;;;;;;;3.22;2.35;;;;;;;11.59;63.32;99868.31;4759818;29;20075;-79
2022/09/08 04:44:01;;;;;;;3.28;2.45;;;;;;;11.50;62.86;99845.00;4767788;29;20124;-78
2022/09/08 04:46:28;;;;;;;2.90;2.25;;;;;;;11.55;63.08;99843.19;4770201;29;20046;-79
2022/09/08 04:48:54;;;;;;;3.92;2.60;;;;;;;11.72;63.14;99856.88;4773783;30;20083;-78
2022/09/08 04:51:22;;;;;;;3.10;2.30;;;;;;;11.76;63.01;99860.28;4757708;30;20470;-79
2022/09/08 04:53:51;;;;;;;2.97;2.30;;;;;;;11.75;62.60;99864.66;4776972;29;20117;-80
2022/09/08 04:56:19;;;;;;;3.80;2.38;;;;;;;11.69;62.60;99846.47;4739435;30;20035;-80
2022/09/08 04:58:46;;;;;;;3.50;2.20;;;;;;;11.82;62.48;99859.34;4745121;30;20048;-79
2022/09/08 05:01:15;;;;;;;3.75;2.13;;;;;;;11.93;62.50;99861.81;4756084;30;20064;-79
2022/09/08 05:03:42;;;;;;;2.88;1.90;;;;;;;12.07;62.25;99872.97;4740035;29;20404;-81
2022/09/08 05:06:15;;;;;;;5.07;2.13;;;;;;;12.15;62.02;99862.44;4773507;29;20039;-79
2022/09/08 05:08:43;;;;;;;3.95;2.03;;;;;;;12.22;61.80;99865.81;4761442;30;20043;-80
2022/09/08 05:11:09;;;;;;;3.13;2.17;;;;;;;12.31;61.05;99866.53;4756091;30;20457;-78
2022/09/08 05:13:37;;;;;;;3.38;2.28;;;;;;;12.22;60.94;99877.13;4772104;29;20091;-78
2022/09/08 05:16:08;;;;;;;2.97;2.08;;;;;;;12.17;60.84;99884.13;4757670;30;20062;-78
2022/09/08 05:18:38;;;;;;;5.53;2.20;;;;;;;12.09;60.62;99866.00;4774238;29;20051;-79
2022/09/08 05:21:05;;;;;;;2.92;1.95;;;;;;;12.08;60.39;99873.81;4773542;29;20170;-79
2022/09/08 05:23:35;;;;;;;2.88;1.98;;;;;;;12.13;60.34;99883.31;4758868;30;20528;-79
2022/09/08 05:26:06;;;;;;;3.22;1.95;;;;;;;12.23;60.55;99884.06;4767101;30;20043;-79
2022/09/08 05:28:35;;;;;;;2.53;2.10;;;;;;;12.35;60.48;99894.31;4759874;30;20105;-80
2022/09/08 05:31:03;;;;;;;2.80;2.20;;;;;;;12.49;60.58;99891.50;4759906;30;20055;-78
2022/09/08 05:33:30;;;;;;;2.83;1.98;;;;;;;12.59;60.19;99883.50;4735476;30;20423;-79
2022/09/08 05:36:07;;;;;;;6.00;2.42;;;;;;;12.75;60.19;99882.38;4750609;29;20092;-79
2022/09/08 05:38:38;;;;;;;2.97;2.10;;;;;;;12.95;59.34;99894.25;4753006;30;20051;-79
2022/09/08 05:41:07;;;;;;;4.60;2.20;;;;;;;13.03;59.38;99892.34;4744308;29;20056;-79
2022/09/08 05:43:33;;;;;;;5.25;2.30;;;;;;;13.09;58.60;99902.69;4762561;30;20490;-77
2022/09/08 05:45:59;;;;;;;3.55;2.40;;;;;;;12.98;58.64;99904.63;4761665;30;20043;-78
2022/09/08 05:48:25;;;;;;;3.70;2.65;;;;;;;12.65;58.42;99901.69;4743954;30;20135;-78
2022/09/08 05:50:54;;;;;;;3.67;2.60;;;;;;;12.41;58.94;99897.72;4773800;29;20043;-80
2022/09/08 05:53:20;;;;;;;3.38;2.28;;;;;;;12.22;58.89;99913.63;4773117;29;20139;-78
2022/09/08 05:55:57;;;;;;;4.85;3.22;;;;;;;11.98;59.50;99913.03;4775767;29;20047;-79
2022/09/08 05:58:25;;;;;;;4.07;2.55;;;;;;;11.76;59.94;99899.41;4746616;29;20196;-78
2022/09/08 06:01:03;;;;;;;4.85;2.78;;;;;;;11.70;60.24;99918.59;4775556;29;20507;-79
2022/09/08 06:03:29;;;;;;;5.07;2.78;;;;;;;11.53;60.79;99897.94;4758343;30;20063;-80
2022/09/08 06:05:55;;;;;;;3.47;2.67;;;;;;;11.59;60.99;99915.22;4762342;30;20054;-78
2022/09/08 06:08:23;;;;;;;5.55;2.65;;;;;;;11.58;61.71;99918.75;4759308;30;20059;-78
2022/09/08 06:10:50;;;;;;;4.45;2.63;;;;;;;11.67;61.75;99918.63;4751401;29;20066;-79
2022/09/08 06:13:23;;;;;;;3.40;2.70;;;;;;;11.71;61.78;99916.84;4774477;30;20050;-80
2022/09/08 06:15:50;;;;;;;4.88;3.88;;;;;;;11.74;62.21;99919.41;4762396;30;20581;-79
2022/09/08 06:18:21;;;;;;;7.65;5.43;;;;;;;11.86;62.44;99910.56;4776744;30;20054;-81
2022/09/08 06:20:47;;;;;;;4.93;3.90;;;;;;;12.02;62.03;99917.38;4789088;29;20059;-81
2022/09/08 06:23:14;;;;;;;4.20;3.00;;;;;;;12.18;62.41;99915.41;4750397;30;20083;-78
2022/09/08 06:25:45;;;;;;;4.95;3.03;;;;;;;12.39;62.18;99912.53;4778807;29;20052;-81
2022/09/08 06:28:28;;;;;;;3.42;2.55;;;;;;;12.95;62.06;99920.34;4776313;29;20057;-78
2022/09/08 06:30:55;;;;;;;4.07;2.90;;;;;;;14.01;62.96;99922.75;4776052;30;20077;-80
2022/09/08 06:33:38;;;;;;;5.60;3.05;;;;;;;15.06;61.32;99911.63;4776466;29;20084;-78
2022/09/08 06:36:16;;;;;;;5.70;3.20;;;;;;;15.56;59.36;99905.06;4745263;30;20043;-79
2022/09/08 06:38:58;;;;;;;3.35;2.50;;;;;;;16.16;57.72;99915.63;4775363;30;20043;-79
2022/09/08 06:41:32;;;;;;;3.35;2.20;;;;;;;16.90;57.14;99912.44;4762977;30;20070;-79
2022/09/08 06:44:12;;;;;;;2.92;2.20;;;;;;;16.80;54.80;99905.75;4774864;29;20050;-80
2022/09/08 06:46:40;;;;;;;3.17;2.17;;;;;;;16.54;54.15;99928.50;4749719;30;20443;-77
2022/09/08 06:49:09;;;;;;;3.70;2.65;;;;;;;16.12;53.74;99911.38;4774928;29;20043;-79
2022/09/08 06:51:51;;;;;;;3.10;2.13;;;;;;;15.91;53.46;99932.09;4766532;30;20124;-79
2022/09/08 06:54:52;;;;;;;2.70;2.08;;;;;;;15.42;53.26;99936.06;4778308;30;20057;-80
2022/09/08 06:57:25;;;;;;;2.38;1.80;;;;;;;14.97;53.46;99937.22;4773026;30;20060;-79
2022/09/08 07:00:01;;;;;;;3.03;2.40;;;;;;;14.61;53.16;99957.19;4758576;30;20051;-80
2022/09/08 07:02:54;;;;;;;2.65;2.13;;;;;;;14.40;53.60;99955.94;4744069;30;20121;-80
2022/09/08 07:05:38;;;;;;;3.88;2.38;;;;;;;14.21;53.79;99958.09;4775337;30;20066;-79
2022/09/08 07:08:30;;;;;;;4.38;2.75;;;;;;;13.93;53.58;99963.03;4774908;29;20043;-79
2022/09/08 07:11:03;;;;;;;;;;;;;;;13.83;54.23;99965.81;4726345;30;20515;-79
2022/09/08 07:13:38;;;;;;;5.55;2.60;;;;;;;13.77;53.96;99960.75;4774275;29;19945;-80
2022/09/08 07:16:34;;;;;;;4.43;2.97;;;;;;;13.75;54.57;99959.03;4758696;29;20078;-80
2022/09/08 07:19:33;;;;;;;3.70;2.60;;;;;;;13.95;54.43;99971.72;4759512;29;20747;-79
2022/09/08 07:22:19;;;;;;;3.63;2.70;;;;;;;14.09;54.56;99967.06;4771668;30;21368;-81
2022/09/08 07:24:53;;;;;;;3.53;2.70;;;;;;;14.18;54.41;99966.00;4769020;29;20055;-78
2022/09/08 07:27:19;;;;;;;3.63;2.63;;;;;;;14.27;54.18;99959.72;4751515;30;20046;-79
2022/09/08 07:29:47;;;;;;;4.07;2.50;;;;;;;14.68;53.54;99971.03;4758681;30;20138;-79
2022/09/08 07:32:17;;;;;;;4.15;2.35;;;;;;;14.91;53.56;99965.28;4742268;29;20482;-82
2022/09/08 07:34:50;;;;;;;3.33;2.33;;;;;;;14.83;52.62;99972.44;4743213;30;20130;-79
2022/09/08 07:37:38;;;;;;;4.47;2.40;;;;;;;14.50;52.79;99984.53;4757880;30;20050;-80
2022/09/08 07:40:21;;;;;;;5.47;2.67;;;;;;;14.26;53.02;99979.81;4774084;30;20083;-81
2022/09/08 07:42:58;;;;;;;4.80;2.80;;;;;;;14.10;53.57;99970.56;4759061;30;20558;-81
2022/09/08 07:45:44;;;;;;;2.63;2.03;;;;;;;14.23;53.34;99977.25;4759139;30;20051;-80
2022/09/08 07:48:26;;;;;;;3.10;1.77;;;;;;;14.34;53.69;99979.63;4758711;30;20054;-80
2022/09/08 07:51:14;;;;;;;2.63;2.00;;;;;;;14.56;52.79;99974.81;4759117;30;20499;-80
2022/09/08 07:54:09;;;;;;;2.58;1.85;;;;;;;14.79;52.93;99983.03;4742800;30;20141;-80
2022/09/08 07:56:43;;;;;;;;;;;;;;;15.29;52.68;99966.97;4774411;30;20044;-79
2022/09/08 07:59:37;;;;;;;1.80;1.50;;;;;;;15.70;52.09;99969.41;4760455;30;20016;-80
2022/09/08 08:02:26;;;;;;;2.58;1.70;;;;;;;15.73;51.15;99969.31;4772993;29;20068;-79
2022/09/08 08:05:26;;;;;;;3.15;1.90;;;;;;;17.25;51.62;99967.41;4769212;30;20078;-80
2022/09/08 08:08:15;;;;;;;4.22;2.00;;;;;;;17.68;48.67;99957.13;4776220;29;20051;-80
2022/09/08 08:11:17;;;;;;;3.13;2.17;;;;;;;17.89;48.27;99966.03;4753746;30;20043;-79
2022/09/08 08:13:52;;;;;;;;;;;;;;;20.37;47.68;99942.66;4752812;29;20538;-78
2022/09/08 08:16:53;;;;;;;2.67;1.70;;;;;;;21.10;44.00;99955.00;4771426;29;19976;-79
2022/09/08 08:19:35;;;;;;;1.58;1.45;;;;;;;21.26;41.79;99930.41;4719193;30;20154;-79
2022/09/08 08:22:24;;;;;;;2.13;1.25;;;;;;;22.38;41.50;99941.28;4766285;30;20139;-78
2022/09/08 08:25:09;;;;;;;3.00;1.48;;;;;;;23.68;39.39;99933.75;4752217;30;20048;-79
2022/09/08 08:27:47;;;;;;;3.42;1.40;;;;;;;24.32;36.59;99925.34;4765020;30;20055;-81
2022/09/08 08:30:21;;;;;;;2.20;1.40;;;;;;;24.17;34.56;99936.94;4761509;29;20605;-79
2022/09/08 08:32:58;;;;;;;6.22;2.05;;;;;;;23.07;35.77;99941.75;4783046;29;20133;-79
2022/09/08 08:35:35;;;;;;;3.45;1.85;;;;;;;22.50;36.14;99943.25;4777438;29;20047;-80
2022/09/08 08:38:04;;;;;;;4.03;2.17;;;;;;;22.03;36.16;99950.22;4779958;29;20052;-80
2022/09/08 08:40:44;;;;;;;;;;;;;;;21.47;36.65;99957.56;4749107;30;20044;-79
2022/09/08 08:43:23;;;;;;;3.78;2.25;;;;;;;20.61;37.45;99947.69;4764249;30;19952;-79
2022/09/08 08:46:20;;;;;;;4.20;1.83;;;;;;;20.16;37.55;99961.22;4768060;29;20049;-80
2022/09/08 08:48:55;;;;;;;3.45;2.00;;;;;;;19.67;37.19;99963.41;4774648;29;20051;-81
2022/09/08 08:52:02;;;;;;;3.38;1.80;;;;;;;19.02;38.46;99974.06;4766527;30;20051;-79
2022/09/08 08:54:41;;;;;;;7.05;2.10;;;;;;;18.50;39.23;99972.56;4718834;30;20063;-81
2022/09/08 08:57:39;;;;;;;2.72;1.95;;;;;;;17.89;39.75;99977.41;4768455;29;20062;-78
2022/09/08 09:00:15;;;;;;;2.95;1.90;;;;;;;17.56;40.22;99990.88;4743886;30;20105;-79
2022/09/08 09:02:50;;;;;;;2.83;1.80;;;;;;;17.12;40.68;100009.00;4776596;29;20067;-81
2022/09/08 09:05:41;;;;;;;4.28;2.20;;;;;;;16.91;41.21;100010.53;4767731;29;20549;-80
2022/09/08 09:08:16;;;;;;;3.35;2.00;;;;;;;16.65;41.73;100009.59;4782981;29;20124;-80
2022/09/08 09:10:54;;;;;;;3.53;2.15;;;;;;;16.42;42.04;100011.16;4788152;29;20051;-79
2022/09/08 09:13:20;;;;;;;2.92;2.13;;;;;;;16.05;42.48;100010.44;4765111;29;20524;-78
2022/09/08 09:16:19;;;;;;;3.45;2.17;;;;;;;15.89;43.06;100017.88;4775253;29;20051;-80
2022/09/08 09:19:10;;;;;;;3.25;2.08;;;;;;;15.70;43.54;100021.88;4779298;30;20050;-80
2022/09/08 09:22:15;;;;;;;2.63;2.00;;;;;;;15.62;44.07;100025.53;4770134;30;20048;-81
2022/09/08 09:25:11;;;;;;;2.17;1.77;;;;;;;15.64;44.63;100022.91;4722789;29;20548;-79
2022/09/08 09:27:46;;;;;;;3.13;1.80;;;;;;;15.61;44.68;100036.94;4763182;30;20055;-80
2022/09/08 09:30:12;;;;;;;2.72;1.60;;;;;;;15.52;44.50;100034.56;4748161;30;20043;-80
2022/09/08 09:32:51;;;;;;;3.33;1.52;;;;;;;15.34;45.06;100031.47;4743757;30;20105;-80
2022/09/08 09:35:59;;;;;;;3.65;1.95;;;;;;;15.42;45.62;100038.31;4747075;30;20166;-79
2022/09/08 09:38:59;;;;;;;6.72;1.88;;;;;;;15.80;45.29;100025.94;4751741;29;20534;-79
2022/09/08 09:41:28;;;;;;;3.97;1.67;;;;;;;16.80;45.93;100026.63;4743984;29;20047;-80
2022/09/08 09:44:15;;;;;;;2.25;1.35;;;;;;;19.89;44.51;100012.63;4770911;30;20055;-80
2022/09/08 09:47:08;;;;;;;3.08;1.50;;;;;;;22.93;39.70;100003.63;4780673;29;20630;-81
2022/09/08 09:49:50;;;;;;;2.67;1.50;;;;;;;25.58;33.82;99978.34;4775512;29;20051;-81
2022/09/08 09:52:32;;;;;;;3.03;1.45;;;;;;;25.43;32.23;99996.22;4779807;29;20049;-84
2022/09/08 09:55:37;;;;;;;2.05;1.30;;;;;;;24.01;32.72;99992.91;4764121;30;20047;-80
2022/09/08 09:58:45;;;;;;;2.22;1.38;;;;;;;22.37;33.53;100011.13;4738041;30;20051;-80
2022/09/08 10:01:43;;;;;;;3.53;1.48;;;;;;;20.81;34.87;100020.75;4774516;29;20142;-80
2022/09/08 10:04:46;;;;;;;3.45;1.65;;;;;;;19.66;36.10;100025.03;4774263;29;20051;-80
2022/09/08 10:07:24;;;;;;;2.33;1.48;;;;;;;18.79;36.96;100031.19;4758636;29;20171;-81
2022/09/08 10:09:53;;;;;;;3.30;1.63;;;;;;;18.16;37.83;100043.16;4774685;29;20044;-81
2022/09/08 10:12:57;;;;;;;5.22;1.80;;;;;;;17.55;38.38;100057.56;4743015;30;20047;-82
2022/09/08 10:15:42;;;;;;;2.80;1.75;;;;;;;16.95;39.13;100067.34;4763130;30;20128;-81
2022/09/08 10:18:27;;;;;;;3.97;1.60;;;;;;;16.59;39.89;100063.16;4774569;29;20060;-82
2022/09/08 10:21:08;;;;;;;3.08;1.90;;;;;;;16.26;40.84;100068.50;4758994;30;20127;-80
2022/09/08 10:23:58;;;;;;;2.30;1.67;;;;;;;15.74;41.60;100062.88;4761854;30;20055;-80
2022/09/08 10:26:34;;;;;;;2.85;1.50;;;;;;;15.60;41.85;100085.03;4758468;30;20455;-80
2022/09/08 10:29:22;;;;;;;1.35;1.25;;;;;;;15.44;42.12;100088.94;4731321;30;20058;-80
2022/09/08 10:32:06;;;;;;;2.72;1.52;;;;;;;15.33;42.82;100092.72;4743366;30;20047;-80
2022/09/08 10:34:51;;;;;;;2.13;1.40;;;;;;;15.19;42.93;100093.03;4742848;30;20116;-79
2022/09/08 10:37:39;;;;;;;2.40;1.25;;;;;;;15.09;43.32;100099.38;4757143;30;20051;-80
2022/09/08 10:40:25;;;;;;;4.03;1.30;;;;;;;14.99;43.39;100098.72;4759775;29;20105;-81
2022/09/08 10:42:54;;;;;;;1.58;1.25;;;;;;;14.91;43.46;100090.16;4741906;30;20120;-82
2022/09/08 10:46:01;;;;;;;1.95;1.40;;;;;;;15.13;43.32;100102.78;4773077;29;20134;-80
2022/09/08 10:48:57;;;;;;;1.73;1.30;;;;;;;15.26;43.72;100103.34;4740698;30;20089;-79
2022/09/08 10:51:38;;;;;;;2.08;1.40;;;;;;;15.38;44.07;100113.56;4758710;30;20421;-81
2022/09/08 10:54:19;;;;;;;2.50;1.20;;;;;;;15.34;43.40;100107.50;4759922;30;20614;-80
2022/09/08 10:56:47;;;;;;;1.73;1.10;;;;;;;15.05;43.77;100108.19;4781185;29;20085;-83
2022/09/08 10:59:39;;;;;;;1.73;1.15;;;;;;;14.81;43.86;100117.47;4776872;29;20394;-80
2022/09/08 11:02:18;;;;;;;1.00;0.80;;;;;;;14.48;44.72;100120.72;4756158;29;20150;-80
2022/09/08 11:05:06;;;;;;;1.33;1.08;;;;;;;14.29;45.12;100131.56;4761583;29;20543;-81
2022/09/08 11:07:52;;;;;;;4.30;1.20;;;;;;;14.31;45.24;100136.75;4773587;29;20043;-81
2022/09/08 11:10:55;;;;;;;1.90;1.27;;;;;;;14.29;45.32;100128.06;4747034;30;20047;-80
2022/09/08 11:13:53;;;;;;;4.32;1.33;;;;;;;14.33;45.55;100132.34;4751201;29;20142;-80
2022/09/08 11:16:19;;;;;;;1.55;1.38;;;;;;;14.42;45.47;100123.44;4766278;30;20104;-82
2022/09/08 11:19:09;;;;;;;3.17;1.52;;;;;;;14.45;45.70;100119.00;4757080;30;20104;-82
2022/09/08 11:22:17;;;;;;;2.75;1.17;;;;;;;14.51;45.78;100122.41;4767242;30;20082;-81
2022/09/08 11:25:12;;;;;;;2.20;1.45;;;;;;;14.38;45.85;100132.25;4747719;29;20066;-79
2022/09/08 11:27:41;;;;;;;3.92;1.70;;;;;;;14.04;46.11;100131.13;4770046;30;20487;-80
2022/09/08 11:30:27;;;;;;;2.50;1.40;;;;;;;13.70;46.94;100139.56;4754014;30;20150;-80
2022/09/08 11:33:10;;;;;;;3.83;1.65;;;;;;;13.64;47.10;100147.50;4760792;30;20040;-78
2022/09/08 11:36:06;;;;;;;5.15;1.40;;;;;;;13.19;47.52;100101.13;4778935;29;20075;-82
2022/09/08 11:38:56;;;;;;;2.38;1.70;;;;;;;13.37;47.72;100153.09;4756580;30;20048;-80
2022/09/08 11:41:31;;;;;;;3.13;1.40;;;;;;;13.17;48.28;100139.47;4782908;29;20520;-79
2022/09/08 11:44:02;;;;;;;3.90;1.52;;;;;;;13.15;48.02;100152.53;4781695;30;20039;-80
2022/09/08 11:46:46;;;;;;;2.00;1.40;;;;;;;13.08;48.29;100137.84;4771939;30;20067;-78
2022/09/08 11:49:19;;;;;;;1.88;1.40;;;;;;;13.13;48.41;100151.69;4741548;30;20126;-81
2022/09/08 11:52:03;;;;;;;;;;;;;;;13.17;48.67;100156.00;4773729;30;20427;-79
2022/09/08 11:54:54;;;;;;;2.47;1.20;;;;;;;13.31;48.32;100153.19;4768259;29;19933;-79
2022/09/08 11:57:45;;;;;;;2.60;1.45;;;;;;;13.48;48.25;100158.19;4745792;30;20144;-81
2022/09/08 12:00:14;;;;;;;8.43;1.70;;;;;;;13.69;47.63;100153.53;4770080;30;20043;-78
2022/09/08 12:03:16;;;;;;;6.13;1.67;;;;;;;13.79;47.24;100147.22;4740861;30;20488;-80
2022/09/08 12:06:20;;;;;;;4.07;2.03;;;;;;;14.21;47.29;100149.13;4743119;29;20043;-79
2022/09/08 12:09:30;;;;;;;3.78;2.20;;;;;;;14.61;46.74;100140.50;4761137;29;20047;-81
2022/09/08 12:12:19;;;;;;;2.85;1.70;;;;;;;14.81;45.88;100141.03;4699378;30;20139;-78
2022/09/08 12:15:13;;;;;;;2.85;1.88;;;;;;;14.78;45.83;100136.75;4756889;29;20043;-79
2022/09/08 12:18:00;;;;;;;2.67;2.03;;;;;;;14.68;45.39;100135.16;4760414;29;20063;-79